createdAt,value
2022-10-01T00:02:11.621Z,96355.22
2022-10-01T00:04:39.938Z,96371.81
2022-10-01T00:07:10.891Z,96377.91
2022-10-01T00:09:39.363Z,96370.88
2022-10-01T00:12:07.752Z,96364.88
2022-10-01T00:14:39.416Z,96370.34
2022-10-01T00:17:07.392Z,96360.03
2022-10-01T00:19:35.345Z,96368.03
2022-10-01T00:22:03.411Z,96368.22
2022-10-01T00:24:31.296Z,96355.41
2022-10-01T00:26:59.744Z,96351.03
2022-10-01T00:29:27.747Z,96349.09
2022-10-01T00:31:57.282Z,96350.81
2022-10-01T00:34:25.365Z,96355.97
2022-10-01T00:36:53.305Z,96353.34
2022-10-01T00:39:21.500Z,96350.72
2022-10-01T00:41:49.949Z,96357.63
2022-10-01T00:44:33.750Z,96351.84
2022-10-01T00:47:14.663Z,96362.66
2022-10-01T00:49:44.328Z,96366.78
2022-10-01T00:52:17.457Z,96378.75
2022-10-01T00:54:49.612Z,96380.22
2022-10-01T00:57:21.882Z,96380.09
2022-10-01T00:59:51.532Z,96382.31
2022-10-01T01:02:21.004Z,96374.53
2022-10-01T01:04:49.308Z,96365.72
2022-10-01T01:07:17.603Z,96367.16
2022-10-01T01:09:48.240Z,96362.78
2022-10-01T01:12:31.638Z,96371.69
2022-10-01T01:15:10.992Z,96369.59
2022-10-01T01:17:51.791Z,96363.47
2022-10-01T01:20:33.466Z,96363.59
2022-10-01T01:23:11.732Z,96364.34
2022-10-01T01:25:47.721Z,96353.63
2022-10-01T01:28:25.149Z,96353.63
2022-10-01T01:30:58.291Z,96349.94
2022-10-01T01:33:30.815Z,96346.97
2022-10-01T01:36:04.558Z,96343.94
2022-10-01T01:38:38.522Z,96329.09
2022-10-01T01:41:08.551Z,96318.47
2022-10-01T01:43:41.507Z,96320.88
2022-10-01T01:46:12.044Z,96317.81
2022-10-01T01:48:44.395Z,96304.94
2022-10-01T01:51:18.052Z,96298.75
2022-10-01T01:53:46.084Z,96301.50
2022-10-01T01:56:14.201Z,96303.16
2022-10-01T01:58:43.450Z,96293.50
2022-10-01T02:01:32.788Z,96298.13
2022-10-01T02:04:01.830Z,96290.88
2022-10-01T02:06:36.839Z,96280.47
2022-10-01T02:09:11.380Z,96287.50
2022-10-01T02:11:53.255Z,96291.47
2022-10-01T02:14:35.222Z,96284.00
2022-10-01T02:17:07.925Z,96285.66
2022-10-01T02:19:41.681Z,96286.72
2022-10-01T02:22:14.110Z,96276.00
2022-10-01T02:24:48.090Z,96271.72
2022-10-01T02:27:28.567Z,96263.00
2022-10-01T02:30:00.399Z,96268.88
2022-10-01T02:32:32.555Z,96275.09
2022-10-01T02:35:02.403Z,96275.81
2022-10-01T02:37:30.481Z,96270.09
2022-10-01T02:40:00.124Z,96270.63
2022-10-01T02:42:30.742Z,96268.69
2022-10-01T02:45:02.711Z,96268.34
2022-10-01T02:47:35.765Z,96261.19
2022-10-01T02:50:04.944Z,96259.38
2022-10-01T02:52:40.058Z,96255.56
2022-10-01T02:55:11.870Z,96261.47
2022-10-01T02:57:39.256Z,96259.31
2022-10-01T03:00:11.814Z,96250.59
2022-10-01T03:02:39.820Z,96255.97
2022-10-01T03:05:09.239Z,96255.63
2022-10-01T03:07:38.055Z,96259.31
2022-10-01T03:10:06.850Z,96247.72
2022-10-01T03:12:35.138Z,96256.34
2022-10-01T03:15:03.599Z,96257.06
2022-10-01T03:17:32.931Z,96252.75
2022-10-01T03:20:00.849Z,96261.13
2022-10-01T03:22:28.819Z,96260.19
2022-10-01T03:24:56.724Z,96256.72
2022-10-01T03:27:24.746Z,96253.75
2022-10-01T03:29:52.847Z,96251.22
2022-10-01T03:32:21.250Z,96249.41
2022-10-01T03:34:50.470Z,96242.25
2022-10-01T03:37:18.350Z,96241.16
2022-10-01T03:39:46.225Z,96253.41
2022-10-01T03:42:14.140Z,96241.16
2022-10-01T03:44:42.018Z,96235.31
2022-10-01T03:47:10.198Z,96227.19
2022-10-01T03:49:38.475Z,96230.53
2022-10-01T03:52:07.923Z,96229.47
2022-10-01T03:54:35.774Z,96225.13
2022-10-01T03:57:03.649Z,96215.31
2022-10-01T03:59:31.585Z,96216.88
2022-10-01T04:01:59.583Z,96215.94
2022-10-01T04:04:28.859Z,96215.69
2022-10-01T04:06:56.984Z,96213.91
2022-10-01T04:09:26.328Z,96206.84
2022-10-01T04:11:54.404Z,96205.78
2022-10-01T04:14:22.293Z,96192.72
2022-10-01T04:16:52.559Z,96193.91
2022-10-01T04:19:21.190Z,96197.28
2022-10-01T04:21:49.381Z,96197.03
2022-10-01T04:24:17.302Z,96191.75
2022-10-01T04:26:46.599Z,96195.00
2022-10-01T04:29:14.535Z,96195.94
2022-10-01T04:31:42.490Z,96193.22
2022-10-01T04:34:10.343Z,96193.22
2022-10-01T04:36:38.204Z,96188.78
2022-10-01T04:39:06.115Z,96191.41
2022-10-01T04:41:34.304Z,96192.97
2022-10-01T04:44:04.255Z,96201.47
2022-10-01T04:46:32.371Z,96200.50
2022-10-01T04:49:01.087Z,96200.03
2022-10-01T04:51:28.999Z,96196.56
2022-10-01T04:53:56.896Z,96196.56
2022-10-01T04:56:24.857Z,96197.41
2022-10-01T04:58:52.751Z,96199.91
2022-10-01T05:01:22.017Z,96192.03
2022-10-01T05:03:50.026Z,96196.31
2022-10-01T05:06:17.950Z,96186.59
2022-10-01T05:08:45.858Z,96186.38
2022-10-01T05:11:13.730Z,96184.69
2022-10-01T05:13:41.672Z,96181.84
2022-10-01T05:16:09.646Z,96191.53
2022-10-01T05:18:40.599Z,96192.50
2022-10-01T05:21:10.003Z,96192.84
2022-10-01T05:23:38.674Z,96190.31
2022-10-01T05:26:07.440Z,96189.38
2022-10-01T05:28:36.588Z,96185.78
2022-10-01T05:31:05.337Z,96188.41
2022-10-01T05:33:34.129Z,96188.19
2022-10-01T05:36:05.153Z,96178.72
2022-10-01T05:38:36.153Z,96179.34
2022-10-01T05:41:04.459Z,96179.94
2022-10-01T05:43:32.413Z,96173.00
2022-10-01T05:46:01.901Z,96168.44
2022-10-01T05:48:31.614Z,96164.72
2022-10-01T05:50:59.926Z,96146.03
2022-10-01T05:53:29.183Z,96136.31
2022-10-01T05:55:57.027Z,96132.38
2022-10-01T05:58:24.851Z,96134.13
2022-10-01T06:00:54.210Z,96132.94
2022-10-01T06:03:22.738Z,96122.41
2022-10-01T06:05:50.649Z,96121.09
2022-10-01T06:08:18.550Z,96105.13
2022-10-01T06:10:47.806Z,96104.91
2022-10-01T06:13:17.952Z,96102.13
2022-10-01T06:15:46.707Z,96100.19
2022-10-01T06:18:15.128Z,96098.28
2022-10-01T06:20:42.937Z,96102.19
2022-10-01T06:23:12.566Z,96094.06
2022-10-01T06:25:41.762Z,96091.28
2022-10-01T06:28:14.732Z,96097.72
2022-10-01T06:30:42.829Z,96096.63
2022-10-01T06:33:13.023Z,96092.22
2022-10-01T06:35:42.862Z,96087.03
2022-10-01T06:38:12.015Z,96091.34
2022-10-01T06:40:40.929Z,96082.59
2022-10-01T06:43:09.535Z,96096.63
2022-10-01T06:45:40.633Z,96086.94
2022-10-01T06:48:09.051Z,96085.00
2022-10-01T06:50:36.969Z,96087.38
2022-10-01T06:53:05.330Z,96099.34
2022-10-01T06:55:35.417Z,96103.53
2022-10-01T06:58:05.786Z,96100.03
2022-10-01T07:00:36.092Z,96105.19
2022-10-01T07:03:10.803Z,96103.28
2022-10-01T07:05:39.625Z,96103.16
2022-10-01T07:08:09.025Z,96098.59
2022-10-01T07:10:38.082Z,96088.72
2022-10-01T07:13:09.835Z,96084.44
2022-10-01T07:15:38.174Z,96103.72
2022-10-01T07:18:09.513Z,96091.25
2022-10-01T07:20:39.823Z,96109.72
2022-10-01T07:23:08.729Z,96099.88
2022-10-01T07:25:38.766Z,96098.78
2022-10-01T07:28:08.447Z,96086.78
2022-10-01T07:30:36.427Z,96078.38
2022-10-01T07:33:04.355Z,96061.00
2022-10-01T07:35:33.670Z,96067.94
2022-10-01T07:38:06.111Z,96069.38
2022-10-01T07:40:34.098Z,96070.47
2022-10-01T07:43:01.963Z,96093.50
2022-10-01T07:45:29.850Z,96084.38
2022-10-01T07:47:59.448Z,96092.28
2022-10-01T07:50:28.783Z,96080.63
2022-10-01T07:52:59.490Z,96085.78
2022-10-01T07:55:30.648Z,96084.38
2022-10-01T07:58:01.373Z,96079.66
2022-10-01T08:00:31.303Z,96082.28
2022-10-01T08:02:59.190Z,96073.53
2022-10-01T08:05:29.054Z,96081.56
2022-10-01T08:08:01.432Z,96085.06
2022-10-01T08:10:29.788Z,96093.56
2022-10-01T08:13:01.452Z,96090.09
2022-10-01T08:15:29.667Z,96088.53
2022-10-01T08:17:57.487Z,96097.28
2022-10-01T08:20:25.485Z,96100.91
2022-10-01T08:22:53.352Z,96097.69
2022-10-01T08:25:22.561Z,96104.50
2022-10-01T08:27:50.454Z,96097.69
2022-10-01T08:30:18.391Z,96093.56
2022-10-01T08:32:46.195Z,96103.28
2022-10-01T08:35:14.320Z,96107.72
2022-10-01T08:37:42.224Z,96103.59
2022-10-01T08:40:11.151Z,96109.72
2022-10-01T08:42:49.591Z,96110.41
2022-10-01T08:45:21.390Z,96109.31
2022-10-01T08:47:56.510Z,96111.69
2022-10-01T08:50:33.630Z,96111.69
2022-10-01T08:53:05.390Z,96102.84
2022-10-01T08:55:37.406Z,96108.53
2022-10-01T08:58:11.113Z,96106.75
2022-10-01T09:00:43.144Z,96104.28
2022-10-01T09:03:14.400Z,96101.50
2022-10-01T09:05:52.639Z,96112.06
2022-10-01T09:08:43.547Z,96105.56
2022-10-01T09:11:26.761Z,96110.03
2022-10-01T09:14:10.836Z,96115.72
2022-10-01T09:16:48.467Z,96122.44
2022-10-01T09:19:40.753Z,96116.16
2022-10-01T09:22:18.656Z,96122.16
2022-10-01T09:24:51.862Z,96121.66
2022-10-01T09:27:26.638Z,96118.72
2022-10-01T09:30:00.834Z,96118.31
2022-10-01T09:32:33.354Z,96123.03
2022-10-01T09:35:11.913Z,96122.09
2022-10-01T09:37:44.566Z,96135.84
2022-10-01T09:40:19.246Z,96134.63
2022-10-01T09:42:48.593Z,96139.50
2022-10-01T09:45:19.693Z,96125.31
2022-10-01T09:47:52.026Z,96120.63
2022-10-01T09:50:26.307Z,96141.34
2022-10-01T09:52:56.415Z,96141.06
2022-10-01T09:55:31.623Z,96134.84
2022-10-01T09:58:05.219Z,96139.97
2022-10-01T10:00:34.843Z,96140.69
2022-10-01T10:03:02.781Z,96151.25
2022-10-01T10:05:40.279Z,96155.44
2022-10-01T10:08:14.328Z,96151.97
2022-10-01T10:11:00.537Z,96158.78
2022-10-01T10:13:35.247Z,96168.63
2022-10-01T10:16:16.667Z,96164.19
2022-10-01T10:18:52.112Z,96159.88
2022-10-01T10:21:25.385Z,96167.44
2022-10-01T10:23:55.049Z,96174.84
2022-10-01T10:26:28.639Z,96179.16
2022-10-01T10:28:57.511Z,96171.81
2022-10-01T10:31:29.512Z,96166.66
2022-10-01T10:34:05.930Z,96173.47
2022-10-01T10:36:37.396Z,96181.69
2022-10-01T10:39:12.431Z,96169.72
2022-10-01T10:41:45.544Z,96167.78
2022-10-01T10:44:19.533Z,96170.16
2022-10-01T10:46:49.763Z,96157.63
2022-10-01T10:49:22.387Z,96160.72
2022-10-01T10:51:53.814Z,96139.16
2022-10-01T10:54:24.637Z,96145.56
2022-10-01T10:56:54.346Z,96146.44
2022-10-01T10:59:22.248Z,96150.34
2022-10-01T11:01:52.845Z,96152.56
2022-10-01T11:04:28.117Z,96149.94
2022-10-01T11:07:01.528Z,96141.56
2022-10-01T11:09:43.347Z,96152.84
2022-10-01T11:12:21.717Z,96147.00
2022-10-01T11:15:13.373Z,96153.16
2022-10-01T11:17:59.715Z,96151.16
2022-10-01T11:20:38.236Z,96154.50
2022-10-01T11:23:36.690Z,96145.63
2022-10-01T11:26:16.501Z,96151.63
2022-10-01T11:28:52.494Z,96150.50
2022-10-01T11:31:32.643Z,96157.75
2022-10-01T11:34:18.965Z,96157.75
2022-10-01T11:37:00.349Z,96159.56
2022-10-01T11:39:32.304Z,96166.38
2022-10-01T11:42:03.408Z,96160.94
2022-10-01T11:44:36.648Z,96166.09
2022-10-01T11:47:08.647Z,96163.72
2022-10-01T11:49:51.706Z,96173.19
2022-10-01T11:52:26.131Z,96165.25
2022-10-01T11:55:23.701Z,96168.44
2022-10-01T11:58:16.180Z,96171.97
2022-10-01T12:00:51.871Z,96162.03
2022-10-01T12:03:25.057Z,96169.97
2022-10-01T12:05:57.890Z,96171.25
2022-10-01T12:08:31.967Z,96177.09
2022-10-01T12:11:07.669Z,96183.25
2022-10-01T12:13:40.396Z,96184.06
2022-10-01T12:16:15.625Z,96176.84
2022-10-01T12:18:52.583Z,96184.38
2022-10-01T12:21:26.960Z,96186.16
2022-10-01T12:24:01.482Z,96182.97
2022-10-01T12:26:39.419Z,96190.63
2022-10-01T12:29:16.188Z,96196.91
2022-10-01T12:31:50.311Z,96199.13
2022-10-01T12:34:26.732Z,96198.97
2022-10-01T12:37:10.296Z,96201.91
2022-10-01T12:39:57.892Z,96208.59
2022-10-01T12:42:47.441Z,96211.94
2022-10-01T12:45:30.343Z,96210.69
2022-10-01T12:48:08.054Z,96222.66
2022-10-01T12:50:48.782Z,96221.41
2022-10-01T12:53:26.756Z,96222.66
2022-10-01T12:56:13.436Z,96230.88
2022-10-01T12:58:52.359Z,96220.69
2022-10-01T13:01:34.337Z,96237.84
2022-10-01T13:07:21.197Z,96230.34
2022-10-01T13:10:01.688Z,96232.00
2022-10-01T13:12:45.761Z,96224.13
2022-10-01T13:15:17.583Z,96244.22
2022-10-01T13:17:51.785Z,96234.69
2022-10-01T13:20:31.167Z,96237.19
2022-10-01T13:23:06.413Z,96233.13
2022-10-01T13:25:43.108Z,96231.69
2022-10-01T13:28:18.564Z,96234.63
2022-10-01T13:30:59.049Z,96228.88
2022-10-01T13:33:29.839Z,96243.78
2022-10-01T13:35:59.868Z,96238.06
2022-10-01T13:38:31.109Z,96243.09
2022-10-01T13:41:03.094Z,96245.88
2022-10-01T13:43:33.400Z,96239.31
2022-10-01T13:46:08.974Z,96247.47
2022-10-01T13:48:38.800Z,96240.06
2022-10-01T13:51:10.722Z,96243.56
2022-10-01T13:53:50.057Z,96250.13
2022-10-01T13:56:31.603Z,96242.69
2022-10-01T13:58:59.718Z,96246.56
2022-10-01T14:01:31.968Z,96245.88
2022-10-01T14:04:06.175Z,96242.78
2022-10-01T14:06:46.999Z,96244.13
2022-10-01T14:09:19.567Z,96257.81
2022-10-01T14:12:09.811Z,96255.31
2022-10-01T14:14:56.873Z,96253.19
2022-10-01T14:17:29.162Z,96253.34
2022-10-01T14:19:57.951Z,96255.16
2022-10-01T14:22:51.091Z,96257.81
2022-10-01T14:25:27.783Z,96256.13
2022-10-01T14:28:26.317Z,96254.16
2022-10-01T14:31:02.086Z,96259.78
2022-10-01T14:34:05.387Z,96256.13
2022-10-01T14:36:35.602Z,96239.38
2022-10-01T14:39:17.594Z,96242.88
2022-10-01T14:41:47.387Z,96247.47
2022-10-01T14:44:26.205Z,96251.53
2022-10-01T14:46:56.073Z,96246.22
2022-10-01T14:49:29.017Z,96246.50
2022-10-01T14:52:01.700Z,96244.69
2022-10-01T14:54:31.546Z,96243.69
2022-10-01T14:56:59.867Z,96253.09
2022-10-01T14:59:36.070Z,96264.41
2022-10-01T15:02:13.992Z,96258.41
2022-10-01T15:04:47.419Z,96268.63
2022-10-01T15:07:17.167Z,96266.25
2022-10-01T15:09:45.750Z,96263.34
2022-10-01T15:12:14.613Z,96261.81
2022-10-01T15:14:45.025Z,96265.59
2022-10-01T15:17:20.772Z,96274.09
2022-10-01T15:19:52.829Z,96267.94
2022-10-01T15:22:25.190Z,96268.53
2022-10-01T15:24:56.988Z,96273.13
2022-10-01T15:27:26.033Z,96268.69
2022-10-01T15:29:58.739Z,96266.88
2022-10-01T15:32:29.061Z,96275.78
2022-10-01T15:35:00.644Z,96280.44
2022-10-01T15:37:32.353Z,96276.78
2022-10-01T15:40:01.382Z,96272.47
2022-10-01T15:42:31.544Z,96269.25
2022-10-01T15:45:26.468Z,96276.66
2022-10-01T15:47:57.115Z,96288.28
2022-10-01T15:50:27.437Z,96282.97
2022-10-01T15:53:06.620Z,96286.63
2022-10-01T15:55:39.081Z,96289.53
2022-10-01T15:58:15.199Z,96293.19
2022-10-01T16:00:58.316Z,96301.28
2022-10-01T16:03:29.205Z,96298.50
2022-10-01T16:05:58.831Z,96297.09
2022-10-01T16:08:34.149Z,96305.06
2022-10-01T16:11:20.939Z,96317.38
2022-10-01T16:13:50.550Z,96313.84
2022-10-01T16:16:23.782Z,96315.53
2022-10-01T16:18:56.168Z,96321.00
2022-10-01T16:21:24.544Z,96321.97
2022-10-01T16:23:54.061Z,96330.06
2022-10-01T16:26:46.897Z,96325.34
2022-10-01T16:29:23.453Z,96334.28
2022-10-01T16:31:52.746Z,96341.53
2022-10-01T16:34:21.693Z,96346.97
2022-10-01T16:36:50.353Z,96351.47
2022-10-01T16:39:18.318Z,96348.28
2022-10-01T16:42:06.177Z,96351.88
2022-10-01T16:44:40.070Z,96357.34
2022-10-01T16:47:11.243Z,96358.47
2022-10-01T16:49:39.157Z,96361.38
2022-10-01T16:52:07.069Z,96363.22
2022-10-01T16:54:35.265Z,96366.00
2022-10-01T16:57:03.129Z,96369.94
2022-10-01T16:59:33.787Z,96373.41
2022-10-01T17:02:02.257Z,96379.84
2022-10-01T17:04:34.025Z,96380.78
2022-10-01T17:07:02.456Z,96385.41
2022-10-01T17:09:30.389Z,96393.34
2022-10-01T17:11:59.036Z,96392.69
2022-10-01T17:14:27.726Z,96391.97
2022-10-01T17:16:55.729Z,96398.25
2022-10-01T17:19:24.571Z,96387.66
2022-10-01T17:21:55.764Z,96394.78
2022-10-01T17:24:23.764Z,96396.59
2022-10-01T17:26:51.753Z,96390.59
2022-10-01T17:29:19.635Z,96399.53
2022-10-01T17:31:53.139Z,96404.97
2022-10-01T17:34:21.881Z,96401.47
2022-10-01T17:36:49.811Z,96415.84
2022-10-01T17:39:19.109Z,96423.66
2022-10-01T17:41:47.007Z,96435.94
2022-10-01T17:44:15.038Z,96440.38
2022-10-01T17:46:42.982Z,96439.56
2022-10-01T17:49:10.957Z,96449.19
2022-10-01T17:51:38.862Z,96441.38
2022-10-01T17:54:06.751Z,96457.41
2022-10-01T17:56:36.457Z,96448.63
2022-10-01T17:59:05.071Z,96462.72
2022-10-01T18:01:33.260Z,96474.00
2022-10-01T18:04:03.523Z,96474.16
2022-10-01T18:06:31.407Z,96480.44
2022-10-01T18:09:00.487Z,96497.03
2022-10-01T18:11:29.687Z,96495.22
2022-10-01T18:13:59.179Z,96493.56
2022-10-01T18:16:28.060Z,96496.22
2022-10-01T18:21:45.218Z,96499.81
2022-10-01T18:24:13.105Z,96505.97
2022-10-01T18:26:41.109Z,96508.47
2022-10-01T18:29:12.563Z,96509.47
2022-10-01T18:31:44.773Z,96518.25
2022-10-01T18:34:19.855Z,96517.41
2022-10-01T18:36:56.048Z,96516.44
2022-10-01T18:39:29.697Z,96519.09
2022-10-01T18:41:58.413Z,96528.03
2022-10-01T18:44:27.685Z,96547.41
2022-10-01T18:47:07.112Z,96547.41
2022-10-01T18:50:00.716Z,96551.06
2022-10-01T18:52:39.080Z,96552.72
2022-10-01T18:55:37.363Z,96572.38
2022-10-01T18:58:19.223Z,96577.56
2022-10-01T19:00:57.811Z,96582.16
2022-10-01T19:03:45.394Z,96593.59
2022-10-01T19:06:30.023Z,96595.25
2022-10-01T19:09:14.676Z,96593.59
2022-10-01T19:11:54.697Z,96588.28
2022-10-01T19:14:40.733Z,96594.44
2022-10-01T19:17:19.869Z,96601.41
2022-10-01T19:20:01.118Z,96600.56
2022-10-01T19:22:44.025Z,96609.50
2022-10-01T19:25:20.779Z,96611.31
2022-10-01T19:28:04.050Z,96609.78
2022-10-01T19:30:38.990Z,96625.53
2022-10-01T19:33:12.206Z,96629.72
2022-10-01T19:35:42.680Z,96631.66
2022-10-01T19:38:16.932Z,96630.72
2022-10-01T19:40:53.306Z,96645.78
2022-10-01T19:43:28.106Z,96645.78
2022-10-01T19:46:01.845Z,96650.38
2022-10-01T19:48:43.167Z,96657.50
2022-10-01T19:51:14.047Z,96660.38
2022-10-01T19:53:45.351Z,96676.28
2022-10-01T19:56:18.635Z,96670.88
2022-10-01T19:58:46.983Z,96676.28
2022-10-01T20:01:21.026Z,96678.94
2022-10-01T20:03:58.831Z,96675.47
2022-10-01T20:06:31.904Z,96678.09
2022-10-01T20:09:03.983Z,96680.75
2022-10-01T20:11:36.951Z,96694.13
2022-10-01T20:14:55.656Z,96687.88
2022-10-01T20:17:31.075Z,96702.09
2022-10-01T20:20:10.228Z,96699.59
2022-10-01T20:22:46.550Z,96707.38
2022-10-01T20:25:24.086Z,96715.22
2022-10-01T20:27:59.078Z,96716.22
2022-10-01T20:30:31.214Z,96715.34
2022-10-01T20:33:07.927Z,96723.28
2022-10-01T20:35:49.466Z,96715.34
2022-10-01T20:38:21.808Z,96725.38
2022-10-01T20:40:56.188Z,96724.56
2022-10-01T20:43:32.008Z,96734.28
2022-10-01T20:46:06.110Z,96736.09
2022-10-01T20:48:37.747Z,96732.75
2022-10-01T20:51:11.259Z,96736.25
2022-10-01T20:53:46.192Z,96734.69
2022-10-01T20:56:25.379Z,96735.38
2022-10-01T20:58:57.426Z,96740.84
2022-10-01T21:01:27.172Z,96741.94
2022-10-01T21:04:02.401Z,96739.28
2022-10-01T21:06:37.429Z,96742.91
2022-10-01T21:09:16.155Z,96748.19
2022-10-01T21:11:48.534Z,96754.34
2022-10-01T21:14:23.710Z,96762.16
2022-10-01T21:17:15.610Z,96764.25
2022-10-01T21:19:58.995Z,96767.72
2022-10-01T21:22:40.484Z,96762.53
2022-10-01T21:25:18.650Z,96771.59
2022-10-01T21:28:04.012Z,96774.25
2022-10-01T21:30:43.701Z,96770.06
2022-10-01T21:33:16.195Z,96771.72
2022-10-01T21:35:51.587Z,96781.75
2022-10-01T21:38:40.638Z,96778.28
2022-10-01T21:41:34.473Z,96778.38
2022-10-01T21:44:16.455Z,96783.56
2022-10-01T21:46:51.488Z,96788.97
2022-10-01T21:49:30.278Z,96795.94
2022-10-01T21:52:11.488Z,96796.09
2022-10-01T21:55:06.933Z,96813.81
2022-10-01T21:57:53.496Z,96808.38
2022-10-01T22:00:24.974Z,96809.44
2022-10-01T22:03:02.223Z,96814.84
2022-10-01T22:05:37.496Z,96829.06
2022-10-01T22:08:23.289Z,96831.84
2022-10-01T22:10:56.883Z,96834.75
2022-10-01T22:13:29.985Z,96826.81
2022-10-01T22:16:01.866Z,96847.16
2022-10-01T22:18:36.471Z,96859.44
2022-10-01T22:21:10.755Z,96868.47
2022-10-01T22:23:41.617Z,96859.09
2022-10-01T22:26:16.961Z,96858.84
2022-10-01T22:28:50.264Z,96855.22
2022-10-01T22:31:23.753Z,96856.06
2022-10-01T22:33:58.564Z,96854.41
2022-10-01T22:36:33.240Z,96858.59
2022-10-01T22:39:05.842Z,96852.84
2022-10-01T22:41:41.253Z,96853.56
2022-10-01T22:44:15.035Z,96855.50
2022-10-01T22:47:11.900Z,96866.09
2022-10-01T22:49:51.905Z,96859.81
2022-10-01T22:52:31.861Z,96850.44
2022-10-01T22:55:11.804Z,96855.84
2022-10-01T22:58:01.536Z,96846.09
2022-10-01T23:00:29.771Z,96855.03
2022-10-01T23:03:07.920Z,96866.56
2022-10-01T23:05:45.929Z,96854.31
2022-10-01T23:08:22.535Z,96860.81
2022-10-01T23:11:02.564Z,96869.75
2022-10-01T23:13:39.869Z,96866.22
2022-10-01T23:16:15.564Z,96875.16
2022-10-01T23:18:54.047Z,96875.25
2022-10-01T23:21:34.825Z,96871.19
2022-10-01T23:24:15.255Z,96872.03
2022-10-01T23:26:53.068Z,96873.97
2022-10-01T23:29:44.510Z,96867.94
2022-10-01T23:32:28.322Z,96883.09
2022-10-01T23:35:05.355Z,96887.31
2022-10-01T23:37:52.735Z,96906.81
2022-10-01T23:40:23.564Z,96913.69
2022-10-01T23:42:59.831Z,96909.34
2022-10-01T23:45:35.203Z,96913.56
2022-10-01T23:48:09.628Z,96923.56
2022-10-01T23:50:45.589Z,96912.13
2022-10-01T23:53:16.390Z,96927.75
2022-10-01T23:56:07.913Z,96921.75
2022-10-01T23:58:43.408Z,96919.09
